South Bend, Indiana
Current Conditions -  °F | °C
As of 5:54 PM on Saturday 25 Oct 2014 (Local Time) from KSBN Reporting Station
Clear Clear  
Wind Chill: 66°   Ceiling: Unl
Heat Index: 66°   Visibility: 10mi
Dew Point: 37°   Wind: 12mph
Humidity: 35%   Direction: 300°WNW
Pressure: 29.89"   Gusts: NA
Location:  41.68°N, 86.25°W
Report Text: KSBN 252154Z 30010KT 10SM SKC 19/03 A2989
Loading
Personal Weather Stations






























Interactive Weather Map New forecast layout! Learn more

10-Day Weather Forecast

Advertisements
Track Severe Weather on mobile